createdAt,value
2019-05-26T00:00:18.372Z,0.00
2019-05-26T00:01:18.344Z,0.00
2019-05-26T00:02:18.343Z,0.00
2019-05-26T00:03:18.330Z,0.00
2019-05-26T00:04:46.050Z,0.00
2019-05-26T00:05:46.048Z,0.00
2019-05-26T00:06:46.041Z,0.00
2019-05-26T00:07:46.034Z,0.00
2019-05-26T00:08:46.029Z,0.00
2019-05-26T00:09:46.023Z,0.00
2019-05-26T00:10:46.016Z,0.00
2019-05-26T00:11:46.009Z,0.00
2019-05-26T00:12:46.003Z,0.00
2019-05-26T00:13:45.996Z,0.00
2019-05-26T00:14:45.991Z,0.00
2019-05-26T00:16:13.763Z,0.00
2019-05-26T00:17:41.483Z,0.00
2019-05-26T00:18:41.481Z,0.00
2019-05-26T00:19:41.540Z,0.00
2019-05-26T00:20:41.472Z,0.00
2019-05-26T00:21:41.464Z,0.00
2019-05-26T00:22:41.459Z,0.00
2019-05-26T00:23:41.450Z,0.00
2019-05-26T00:24:41.446Z,0.00
2019-05-26T00:26:09.166Z,0.00
2019-05-26T00:27:09.162Z,0.00
2019-05-26T00:28:09.153Z,0.00
2019-05-26T00:29:09.147Z,0.00
2019-05-26T00:30:09.141Z,0.00
2019-05-26T00:31:09.133Z,0.00
2019-05-26T00:32:09.128Z,0.00
2019-05-26T00:33:09.128Z,0.00
2019-05-26T00:34:09.112Z,0.00
2019-05-26T00:35:09.131Z,0.00
2019-05-26T00:36:09.097Z,0.00
2019-05-26T00:37:09.093Z,0.00
2019-05-26T00:38:09.085Z,0.00
2019-05-26T00:39:09.080Z,0.00
2019-05-26T00:40:09.075Z,0.00
2019-05-26T00:41:09.063Z,0.00
2019-05-26T00:42:09.070Z,0.00
2019-05-26T00:43:09.052Z,0.00
2019-05-26T00:44:09.048Z,0.00
2019-05-26T00:45:09.037Z,0.00
2019-05-26T00:46:36.756Z,0.00
2019-05-26T00:47:36.753Z,0.00
2019-05-26T00:48:36.747Z,0.00
2019-05-26T00:49:36.737Z,0.00
2019-05-26T00:50:36.782Z,0.00
2019-05-26T00:51:36.723Z,0.00
2019-05-26T00:52:36.718Z,0.00
2019-05-26T00:53:36.716Z,0.00
2019-05-26T00:54:36.706Z,0.00
2019-05-26T00:55:36.697Z,0.00
2019-05-26T00:56:36.689Z,0.00
2019-05-26T00:57:36.684Z,0.00
2019-05-26T00:58:36.675Z,0.00
2019-05-26T00:59:36.669Z,0.00
2019-05-26T01:00:36.661Z,0.00
2019-05-26T01:01:36.658Z,0.00
2019-05-26T01:02:36.651Z,0.00
2019-05-26T01:03:36.644Z,0.00
2019-05-26T01:04:36.639Z,0.00
2019-05-26T01:05:36.632Z,0.00
2019-05-26T01:06:36.624Z,0.00
2019-05-26T01:07:36.619Z,0.00
2019-05-26T01:08:36.610Z,0.00
2019-05-26T01:09:36.605Z,0.00
2019-05-26T01:10:36.598Z,0.00
2019-05-26T01:11:36.590Z,0.00
2019-05-26T01:12:36.585Z,0.00
2019-05-26T01:13:36.579Z,0.00
2019-05-26T01:14:36.623Z,0.00
2019-05-26T01:15:36.565Z,0.00
2019-05-26T01:16:36.561Z,0.00
2019-05-26T01:17:36.553Z,0.00
2019-05-26T01:18:36.544Z,0.00
2019-05-26T01:19:36.535Z,0.00
2019-05-26T01:20:36.532Z,0.00
2019-05-26T01:22:09.730Z,0.00
2019-05-26T01:22:36.539Z,0.00
2019-05-26T01:23:36.510Z,0.00
2019-05-26T01:24:36.500Z,0.00
2019-05-26T01:25:36.492Z,0.00
2019-05-26T01:26:36.488Z,0.00
2019-05-26T01:27:36.481Z,0.00
2019-05-26T01:28:36.472Z,0.00
2019-05-26T01:29:36.467Z,0.00
2019-05-26T01:30:36.530Z,0.00
2019-05-26T01:31:36.454Z,0.00
2019-05-26T01:32:36.450Z,0.00
2019-05-26T01:33:36.442Z,0.00
2019-05-26T01:34:36.436Z,0.00
2019-05-26T01:35:36.430Z,0.00
2019-05-26T01:36:36.428Z,0.00
2019-05-26T01:37:36.416Z,0.00
2019-05-26T01:38:36.459Z,0.00
2019-05-26T01:39:36.402Z,0.00
2019-05-26T01:40:36.399Z,0.00
2019-05-26T01:41:36.391Z,0.00
2019-05-26T01:42:36.389Z,0.00
2019-05-26T01:43:36.381Z,0.00
2019-05-26T01:44:36.369Z,0.00
2019-05-26T01:45:36.366Z,0.00
2019-05-26T01:46:36.363Z,0.00
2019-05-26T01:47:36.354Z,0.00
2019-05-26T01:48:36.344Z,0.00
2019-05-26T01:49:36.367Z,0.00
2019-05-26T01:50:36.355Z,0.00
2019-05-26T01:51:36.351Z,0.00
2019-05-26T01:52:36.343Z,0.00
2019-05-26T01:53:36.339Z,0.00
2019-05-26T01:54:36.331Z,0.00
2019-05-26T01:55:36.324Z,0.00
2019-05-26T01:56:36.321Z,0.00
2019-05-26T01:57:36.313Z,0.00
2019-05-26T01:58:36.306Z,0.00
2019-05-26T01:59:36.299Z,0.00
2019-05-26T02:00:36.292Z,0.00
2019-05-26T02:01:36.284Z,0.00
2019-05-26T02:02:36.287Z,0.00
2019-05-26T02:03:36.273Z,0.00
2019-05-26T02:04:36.265Z,0.00
2019-05-26T02:05:36.484Z,0.00
2019-05-26T02:06:36.278Z,0.00
2019-05-26T02:07:36.271Z,0.00
2019-05-26T02:08:39.769Z,0.00
2019-05-26T02:09:36.254Z,0.00
2019-05-26T02:10:36.251Z,0.00
2019-05-26T02:11:36.251Z,0.00
2019-05-26T02:12:36.241Z,0.00
2019-05-26T02:13:36.227Z,0.00
2019-05-26T02:14:36.222Z,0.00
2019-05-26T02:15:36.217Z,0.00
2019-05-26T02:16:36.213Z,0.00
2019-05-26T02:17:36.207Z,0.00
2019-05-26T02:18:36.197Z,0.00
2019-05-26T02:19:36.189Z,0.00
2019-05-26T02:20:36.179Z,0.00
2019-05-26T02:21:36.171Z,0.00
2019-05-26T02:22:36.166Z,0.00
2019-05-26T02:25:03.939Z,0.00
2019-05-26T02:26:03.882Z,0.00
2019-05-26T02:27:03.875Z,0.00
2019-05-26T02:28:03.928Z,0.00
2019-05-26T02:29:03.866Z,0.00
2019-05-26T02:30:03.856Z,0.00
2019-05-26T02:31:03.855Z,0.00
2019-05-26T02:32:03.842Z,0.00
2019-05-26T02:33:03.837Z,0.00
2019-05-26T02:34:03.831Z,0.00
2019-05-26T02:35:03.826Z,0.00
2019-05-26T02:37:03.808Z,0.00
2019-05-26T02:38:03.855Z,0.00
2019-05-26T02:39:03.834Z,0.00
2019-05-26T02:40:03.791Z,0.00
2019-05-26T02:41:03.783Z,0.00
2019-05-26T02:42:03.778Z,0.00
2019-05-26T02:43:03.769Z,0.00
2019-05-26T02:44:03.816Z,0.00
2019-05-26T02:45:03.756Z,0.00
2019-05-26T02:46:03.748Z,0.00
2019-05-26T02:47:03.750Z,0.00
2019-05-26T02:48:03.733Z,0.00
2019-05-26T02:49:31.459Z,0.00
2019-05-26T02:50:31.449Z,0.00
2019-05-26T02:52:31.440Z,0.00
2019-05-26T02:53:31.433Z,0.00
2019-05-26T02:54:31.426Z,0.00
2019-05-26T02:55:31.420Z,0.00
2019-05-26T02:56:31.417Z,0.00
2019-05-26T02:57:31.406Z,4.00
2019-05-26T02:58:31.399Z,4.00
2019-05-26T02:59:31.393Z,4.00
2019-05-26T03:00:31.435Z,0.00
2019-05-26T03:01:31.379Z,4.00
2019-05-26T03:02:31.371Z,4.00
2019-05-26T03:03:31.365Z,4.00
2019-05-26T03:04:31.365Z,4.00
2019-05-26T03:05:31.353Z,4.00
2019-05-26T03:06:31.347Z,8.00
2019-05-26T03:07:31.340Z,8.00
2019-05-26T03:08:31.331Z,8.00
2019-05-26T03:09:31.326Z,8.00
2019-05-26T03:10:31.319Z,12.00
2019-05-26T03:11:31.309Z,12.00
2019-05-26T03:12:31.306Z,12.00
2019-05-26T03:13:31.301Z,12.00
2019-05-26T03:14:31.292Z,20.00
2019-05-26T03:15:31.283Z,20.00
2019-05-26T03:16:31.282Z,20.00
2019-05-26T03:17:31.482Z,24.00
2019-05-26T03:18:31.265Z,28.00
2019-05-26T03:19:31.258Z,32.00
2019-05-26T03:20:31.252Z,36.00
2019-05-26T03:21:31.244Z,40.00
2019-05-26T03:22:31.247Z,44.00
2019-05-26T03:23:31.231Z,48.00
2019-05-26T03:24:31.220Z,52.00
2019-05-26T03:25:31.215Z,56.00
2019-05-26T03:26:59.016Z,68.00
2019-05-26T03:27:58.929Z,72.00
2019-05-26T03:28:58.927Z,80.00
2019-05-26T03:29:58.968Z,84.00
2019-05-26T03:30:58.913Z,88.00
2019-05-26T03:31:58.915Z,96.00
2019-05-26T03:32:58.894Z,108.00
2019-05-26T03:33:58.893Z,112.00
2019-05-26T03:34:58.888Z,120.00
2019-05-26T03:36:58.868Z,136.00
2019-05-26T03:37:58.868Z,144.00
2019-05-26T03:38:58.855Z,152.00
2019-05-26T03:39:58.860Z,164.00
2019-05-26T03:40:58.840Z,172.00
2019-05-26T03:41:58.838Z,184.00
2019-05-26T03:42:58.835Z,192.00
2019-05-26T03:43:58.822Z,204.00
2019-05-26T03:44:58.811Z,216.00
2019-05-26T03:45:58.805Z,228.00
2019-05-26T03:46:58.802Z,244.00
2019-05-26T03:47:58.804Z,260.00
2019-05-26T03:48:58.797Z,272.00
2019-05-26T03:49:58.792Z,284.00
2019-05-26T03:50:58.784Z,288.00
2019-05-26T03:51:58.777Z,300.00
2019-05-26T03:52:58.772Z,316.00
2019-05-26T03:53:58.813Z,328.00
2019-05-26T03:54:58.758Z,356.00
2019-05-26T03:55:58.750Z,376.00
2019-05-26T03:56:58.744Z,376.00
2019-05-26T03:57:58.737Z,392.00
2019-05-26T03:58:58.732Z,420.00
2019-05-26T03:59:58.722Z,468.00
2019-05-26T04:00:58.720Z,532.00
2019-05-26T04:01:58.708Z,600.00
2019-05-26T04:02:58.706Z,628.00
2019-05-26T04:03:58.699Z,644.00
2019-05-26T04:05:25.918Z,664.00
2019-05-26T04:06:25.917Z,656.00
2019-05-26T04:07:25.905Z,724.00
2019-05-26T04:08:25.900Z,712.00
2019-05-26T04:09:25.905Z,956.00
2019-05-26T04:11:25.881Z,1068.00
2019-05-26T04:13:59.075Z,1136.00
2019-05-26T04:14:25.857Z,1168.00
2019-05-26T04:15:25.852Z,1204.00
2019-05-26T04:16:25.846Z,1240.00
2019-05-26T04:17:25.839Z,1276.00
2019-05-26T04:18:25.829Z,1308.00
2019-05-26T04:19:25.822Z,1348.00
2019-05-26T04:20:25.839Z,1384.00
2019-05-26T04:21:25.848Z,1424.00
2019-05-26T04:22:25.839Z,1468.00
2019-05-26T04:23:26.033Z,1516.00
2019-05-26T04:24:25.826Z,1560.00
2019-05-26T04:25:25.820Z,1600.00
2019-05-26T04:26:25.815Z,1644.00
2019-05-26T04:27:25.808Z,1680.00
2019-05-26T04:28:25.849Z,1724.00
2019-05-26T04:29:25.804Z,1768.00
2019-05-26T04:30:25.797Z,1804.00
2019-05-26T04:31:25.792Z,1844.00
2019-05-26T04:32:25.784Z,1876.00
2019-05-26T04:33:25.781Z,1908.00
2019-05-26T04:34:25.774Z,1952.00
2019-05-26T04:35:25.764Z,2004.00
2019-05-26T04:36:25.767Z,2052.00
2019-05-26T04:37:25.754Z,2092.00
2019-05-26T04:38:25.742Z,2140.00
2019-05-26T04:39:25.734Z,2188.00
2019-05-26T04:40:27.866Z,2232.00
2019-05-26T04:41:25.733Z,2284.00
2019-05-26T04:42:25.716Z,2320.00
2019-05-26T04:43:25.707Z,2360.00
2019-05-26T04:44:25.720Z,2404.00
2019-05-26T04:45:25.699Z,2444.00
2019-05-26T04:46:25.699Z,2472.00
2019-05-26T04:47:25.683Z,2492.00
2019-05-26T04:48:25.676Z,2496.00
2019-05-26T04:49:25.688Z,2508.00
2019-05-26T04:50:25.663Z,2588.00
2019-05-26T04:51:25.657Z,2668.00
2019-05-26T04:52:25.652Z,2700.00
2019-05-26T04:53:25.650Z,2728.00
2019-05-26T04:54:25.662Z,2740.00
2019-05-26T04:55:25.631Z,2756.00
2019-05-26T04:56:25.626Z,2760.00
2019-05-26T04:57:25.616Z,2752.00
2019-05-26T04:58:25.612Z,2788.00
2019-05-26T04:59:25.605Z,2812.00
2019-05-26T05:00:25.597Z,2852.00
2019-05-26T05:01:25.590Z,2876.00
2019-05-26T05:02:25.585Z,2868.00
2019-05-26T05:03:25.579Z,2884.00
2019-05-26T05:04:25.573Z,2860.00
2019-05-26T05:05:25.568Z,2852.00
2019-05-26T05:06:25.558Z,2844.00
2019-05-26T05:07:28.263Z,2880.00
2019-05-26T05:08:53.277Z,2824.00
2019-05-26T05:10:20.997Z,2952.00
2019-05-26T05:11:20.993Z,3012.00
2019-05-26T05:12:20.992Z,3040.00
2019-05-26T05:13:24.673Z,3100.00
2019-05-26T05:14:20.993Z,3128.00
2019-05-26T05:15:21.187Z,3164.00
2019-05-26T05:16:20.981Z,3180.00
2019-05-26T05:17:20.975Z,3224.00
2019-05-26T05:18:20.970Z,3240.00
2019-05-26T05:19:20.964Z,3256.00
2019-05-26T05:20:20.955Z,3304.00
2019-05-26T05:21:21.056Z,3320.00
2019-05-26T05:22:20.947Z,3308.00
2019-05-26T05:23:20.935Z,3340.00
2019-05-26T05:24:20.930Z,3336.00
2019-05-26T05:25:20.919Z,3316.00
2019-05-26T05:26:20.917Z,3308.00
2019-05-26T05:27:20.909Z,3364.00
2019-05-26T05:28:20.904Z,3324.00
2019-05-26T05:29:20.896Z,3380.00
2019-05-26T05:30:20.890Z,3436.00
2019-05-26T05:31:20.882Z,3504.00
2019-05-26T05:32:20.878Z,3512.00
2019-05-26T05:33:20.869Z,3516.00
2019-05-26T05:34:20.862Z,3520.00
2019-05-26T05:35:20.862Z,3520.00
2019-05-26T05:36:20.854Z,3508.00
2019-05-26T05:37:20.847Z,3276.00
2019-05-26T05:38:20.841Z,3500.00
2019-05-26T05:39:20.840Z,3540.00
2019-05-26T05:40:20.825Z,3568.00
2019-05-26T05:41:20.821Z,3592.00
2019-05-26T05:42:20.814Z,3636.00
2019-05-26T05:43:20.810Z,3668.00
2019-05-26T05:44:20.805Z,3704.00
2019-05-26T05:45:20.801Z,3752.00
2019-05-26T05:46:20.787Z,3788.00
2019-05-26T05:47:20.781Z,3828.00
2019-05-26T05:48:20.772Z,3836.00
2019-05-26T05:49:20.765Z,3816.00
2019-05-26T05:50:20.760Z,3860.00
2019-05-26T05:51:20.754Z,3884.00
2019-05-26T05:52:20.752Z,3712.00
2019-05-26T05:53:20.740Z,3868.00
2019-05-26T05:54:20.734Z,3896.00
2019-05-26T05:55:20.748Z,3852.00
2019-05-26T05:56:20.724Z,3716.00
2019-05-26T05:57:20.767Z,3744.00
2019-05-26T05:58:20.710Z,3664.00
2019-05-26T05:59:48.433Z,3532.00
2019-05-26T06:00:48.432Z,3556.00
2019-05-26T06:01:48.439Z,3496.00
2019-05-26T06:02:48.424Z,3520.00
2019-05-26T06:03:48.414Z,3484.00
2019-05-26T06:04:48.407Z,3732.00
2019-05-26T06:05:48.401Z,3796.00
2019-05-26T06:06:48.395Z,3680.00
2019-05-26T06:07:48.391Z,3720.00
2019-05-26T06:08:48.382Z,3900.00
2019-05-26T06:09:48.377Z,3964.00
2019-05-26T06:10:48.372Z,3880.00
2019-05-26T06:11:52.337Z,3628.00
2019-05-26T06:12:48.358Z,3976.00
2019-05-26T06:13:48.350Z,4100.00
2019-05-26T06:14:48.393Z,4192.00
2019-05-26T06:15:48.338Z,4348.00
2019-05-26T06:16:48.333Z,4444.00
2019-05-26T06:17:48.331Z,4536.00
2019-05-26T06:18:48.319Z,4612.00
2019-05-26T06:19:48.316Z,4640.00
2019-05-26T06:20:48.356Z,4584.00
2019-05-26T06:21:48.302Z,4680.00
2019-05-26T06:22:48.292Z,4700.00
2019-05-26T06:23:48.287Z,4680.00
2019-05-26T06:24:48.281Z,4776.00
2019-05-26T06:25:48.276Z,4904.00
2019-05-26T06:26:48.269Z,4928.00
2019-05-26T06:27:48.266Z,4944.00
2019-05-26T06:28:51.974Z,4972.00
2019-05-26T06:29:58.560Z,4976.00
2019-05-26T06:31:15.973Z,4612.00
2019-05-26T06:32:16.189Z,4324.00
2019-05-26T06:33:15.963Z,3996.00
2019-05-26T06:34:15.954Z,3836.00
2019-05-26T06:35:15.949Z,4064.00
2019-05-26T06:36:15.945Z,4300.00
2019-05-26T06:37:15.938Z,4336.00
2019-05-26T06:38:15.982Z,4796.00
2019-05-26T06:39:15.926Z,4836.00
2019-05-26T06:40:15.916Z,4556.00
2019-05-26T06:41:31.872Z,5268.00
2019-05-26T06:42:43.636Z,5644.00
2019-05-26T06:43:43.644Z,5536.00
2019-05-26T06:44:53.021Z,5356.00
2019-05-26T06:46:11.348Z,5760.00
2019-05-26T06:47:11.345Z,5584.00
2019-05-26T06:48:11.342Z,5728.00
2019-05-26T06:49:11.331Z,5996.00
2019-05-26T06:50:11.325Z,6012.00
2019-05-26T06:51:11.317Z,6116.00
2019-05-26T06:52:11.356Z,6164.00
2019-05-26T06:53:11.317Z,6180.00
2019-05-26T06:54:11.316Z,6228.00
2019-05-26T06:55:39.284Z,6328.00
2019-05-26T06:56:39.278Z,6504.00
2019-05-26T06:57:39.271Z,6680.00
2019-05-26T06:58:39.263Z,6952.00
2019-05-26T06:59:39.257Z,6764.00
2019-05-26T07:00:39.300Z,7228.00
2019-05-26T07:01:39.263Z,7400.00
2019-05-26T07:02:39.260Z,11756.00
2019-05-26T07:03:39.287Z,18560.00
2019-05-26T07:04:39.243Z,24256.00
2019-05-26T07:05:39.237Z,28352.00
2019-05-26T07:06:39.328Z,28512.00
2019-05-26T07:07:39.244Z,28224.00
2019-05-26T07:08:39.216Z,30784.00
2019-05-26T07:09:39.212Z,37536.00
2019-05-26T07:10:39.204Z,41024.00
2019-05-26T07:11:51.730Z,41344.00
2019-05-26T07:13:06.919Z,36320.00
2019-05-26T07:14:06.915Z,37696.00
2019-05-26T07:15:06.910Z,34848.00
2019-05-26T07:16:06.906Z,31360.00
2019-05-26T07:17:06.898Z,30880.00
2019-05-26T07:18:06.892Z,31776.00
2019-05-26T07:19:06.886Z,30656.00
2019-05-26T07:20:06.878Z,28192.00
2019-05-26T07:21:06.874Z,31552.00
2019-05-26T07:22:06.867Z,30560.00
2019-05-26T07:23:08.056Z,36256.00
2019-05-26T07:24:06.925Z,35072.00
2019-05-26T07:25:06.869Z,34176.00
2019-05-26T07:26:06.863Z,34880.00
2019-05-26T07:27:06.856Z,35136.00
2019-05-26T07:28:06.849Z,32384.00
2019-05-26T07:29:06.843Z,34272.00
2019-05-26T07:30:06.839Z,34624.00
2019-05-26T07:31:06.830Z,35328.00
2019-05-26T07:32:06.824Z,36960.00
2019-05-26T07:33:06.818Z,36288.00
2019-05-26T07:34:06.810Z,34272.00
2019-05-26T07:35:06.803Z,36512.00
2019-05-26T07:36:06.799Z,36768.00
2019-05-26T07:37:34.515Z,36256.00
2019-05-26T07:38:34.514Z,35552.00
2019-05-26T07:39:34.506Z,32384.00
2019-05-26T07:40:34.517Z,34656.00
2019-05-26T07:41:34.542Z,37088.00
2019-05-26T07:42:34.483Z,38144.00
2019-05-26T07:43:34.478Z,43008.00
2019-05-26T07:44:34.497Z,40128.00
2019-05-26T07:45:34.489Z,41152.00
2019-05-26T07:46:34.483Z,41408.00
2019-05-26T07:47:34.479Z,41824.00
2019-05-26T07:48:35.960Z,44096.00
2019-05-26T07:49:34.466Z,44224.00
2019-05-26T07:50:34.461Z,46080.00
2019-05-26T07:51:34.454Z,43040.00
2019-05-26T07:52:34.450Z,39360.00
2019-05-26T07:53:34.446Z,40864.00
2019-05-26T07:54:34.439Z,41568.00
2019-05-26T07:55:34.432Z,40384.00
2019-05-26T07:56:34.426Z,38944.00
2019-05-26T07:57:34.418Z,39296.00
2019-05-26T07:58:34.412Z,44992.00
2019-05-26T07:59:34.412Z,44416.00
2019-05-26T08:00:34.408Z,42976.00
2019-05-26T08:01:36.049Z,43392.00
2019-05-26T08:02:34.395Z,43776.00
2019-05-26T08:03:34.390Z,42816.00
2019-05-26T08:04:34.407Z,42560.00
2019-05-26T08:05:34.448Z,42624.00
2019-05-26T08:06:34.393Z,40352.00
2019-05-26T08:07:34.386Z,37760.00
2019-05-26T08:08:34.381Z,42816.00
2019-05-26T08:09:34.374Z,39968.00
2019-05-26T08:10:34.370Z,39008.00
2019-05-26T08:11:34.385Z,38816.00
2019-05-26T08:12:34.380Z,38976.00
2019-05-26T08:13:34.373Z,40608.00
2019-05-26T08:14:34.367Z,43072.00
2019-05-26T08:15:34.366Z,44864.00
2019-05-26T08:16:34.358Z,46560.00
2019-05-26T08:17:34.355Z,46624.00
2019-05-26T08:18:34.346Z,40640.00
2019-05-26T08:19:34.339Z,38560.00
2019-05-26T08:20:34.337Z,40064.00
2019-05-26T08:21:34.329Z,45632.00
2019-05-26T08:22:34.327Z,43296.00
2019-05-26T08:23:34.326Z,42368.00
2019-05-26T08:24:34.312Z,42304.00
2019-05-26T08:25:34.306Z,39392.00
2019-05-26T08:26:34.300Z,39072.00
2019-05-26T08:27:34.316Z,43040.00
2019-05-26T08:28:34.329Z,45888.00
2019-05-26T08:29:34.373Z,46336.00
2019-05-26T08:30:34.317Z,45184.00
2019-05-26T08:31:34.311Z,45600.00
2019-05-26T08:32:34.328Z,46112.00
2019-05-26T08:33:34.323Z,45312.00
2019-05-26T08:34:34.316Z,45632.00
2019-05-26T08:35:34.413Z,44768.00
2019-05-26T08:36:34.304Z,46560.00
2019-05-26T08:37:34.301Z,44896.00
2019-05-26T08:38:34.294Z,46080.00
2019-05-26T08:39:34.289Z,42432.00
2019-05-26T08:40:34.286Z,46400.00
2019-05-26T08:41:34.281Z,43616.00
2019-05-26T08:42:44.158Z,43392.00
2019-05-26T08:44:01.995Z,41376.00
2019-05-26T08:45:01.988Z,43520.00
2019-05-26T08:46:01.983Z,45536.00
2019-05-26T08:47:01.979Z,47776.00
2019-05-26T08:48:01.972Z,46112.00
2019-05-26T08:49:01.966Z,45664.00
2019-05-26T08:50:01.961Z,46496.00
2019-05-26T08:51:01.956Z,44256.00
2019-05-26T08:52:01.954Z,44800.00
2019-05-26T08:53:01.943Z,47648.00
2019-05-26T08:54:01.938Z,48576.00
2019-05-26T08:55:01.939Z,48608.00
2019-05-26T08:56:01.924Z,47104.00
2019-05-26T08:57:02.122Z,47936.00
2019-05-26T08:58:01.943Z,51392.00
2019-05-26T08:59:01.908Z,50304.00
2019-05-26T09:00:01.905Z,51488.00
2019-05-26T09:01:01.894Z,52320.00
2019-05-26T09:02:01.896Z,55776.00
2019-05-26T09:03:01.893Z,50816.00
2019-05-26T09:04:01.930Z,53280.00
2019-05-26T09:05:01.873Z,52320.00
2019-05-26T09:06:01.905Z,52416.00
2019-05-26T09:07:01.863Z,50464.00
2019-05-26T09:08:01.858Z,48640.00
2019-05-26T09:09:01.851Z,49504.00
2019-05-26T09:10:01.844Z,50976.00
2019-05-26T09:11:01.839Z,48672.00
2019-05-26T09:12:01.831Z,48448.00
2019-05-26T09:13:01.858Z,45504.00
2019-05-26T09:14:01.822Z,43264.00
2019-05-26T09:15:01.816Z,41152.00
2019-05-26T09:16:01.814Z,40544.00
2019-05-26T09:17:01.806Z,38976.00
2019-05-26T09:18:01.807Z,42848.00
2019-05-26T09:19:01.798Z,43808.00
2019-05-26T09:20:01.792Z,42208.00
2019-05-26T09:21:01.818Z,45472.00
2019-05-26T09:22:01.782Z,50208.00
2019-05-26T09:23:01.822Z,52736.00
2019-05-26T09:24:01.768Z,51872.00
2019-05-26T09:25:02.017Z,51776.00
2019-05-26T09:26:01.771Z,52320.00
2019-05-26T09:27:01.754Z,54016.00
2019-05-26T09:28:01.747Z,54432.00
2019-05-26T09:29:01.794Z,53408.00
2019-05-26T09:30:29.460Z,52128.00
2019-05-26T09:31:29.460Z,45600.00
2019-05-26T09:32:29.453Z,46208.00
2019-05-26T09:33:29.454Z,47680.00
2019-05-26T09:34:29.462Z,48416.00
2019-05-26T09:35:29.441Z,47552.00
2019-05-26T09:36:29.433Z,48544.00
2019-05-26T09:37:29.422Z,46976.00
2019-05-26T09:38:29.418Z,44352.00
2019-05-26T09:39:29.411Z,42432.00
2019-05-26T09:40:29.459Z,45472.00
2019-05-26T09:41:29.403Z,44832.00
2019-05-26T09:42:29.395Z,42752.00
2019-05-26T09:43:29.389Z,40928.00
2019-05-26T09:44:29.389Z,39232.00
2019-05-26T09:45:29.376Z,36832.00
2019-05-26T09:46:29.368Z,14748.00
2019-05-26T09:47:29.365Z,34144.00
2019-05-26T09:48:29.359Z,43808.00
2019-05-26T09:49:29.376Z,23488.00
2019-05-26T09:50:29.373Z,47392.00
2019-05-26T09:51:29.365Z,42144.00
2019-05-26T09:52:29.362Z,34848.00
2019-05-26T09:53:29.350Z,39744.00
2019-05-26T09:54:29.348Z,36448.00
2019-05-26T09:55:29.341Z,37728.00
2019-05-26T09:56:29.342Z,39040.00
2019-05-26T09:57:29.333Z,9924.00
2019-05-26T09:58:29.427Z,17856.00
2019-05-26T09:59:29.324Z,50592.00
2019-05-26T10:00:29.340Z,52864.00
2019-05-26T10:01:29.335Z,57664.00
2019-05-26T10:02:29.330Z,57920.00
2019-05-26T10:03:29.328Z,54368.00
2019-05-26T10:04:29.324Z,57184.00
2019-05-26T10:05:29.312Z,60832.00
2019-05-26T10:06:29.308Z,58208.00
2019-05-26T10:07:29.304Z,58464.00
2019-05-26T10:08:29.297Z,58432.00
2019-05-26T10:09:29.295Z,59072.00
2019-05-26T10:10:29.285Z,55136.00
2019-05-26T10:11:29.280Z,56544.00
2019-05-26T10:12:29.275Z,55936.00
2019-05-26T10:13:31.993Z,32512.00
2019-05-26T10:14:29.263Z,56640.00
2019-05-26T10:15:29.255Z,54528.00
2019-05-26T10:16:29.300Z,51040.00
2019-05-26T10:17:29.252Z,21984.00
2019-05-26T10:18:29.241Z,49920.00
2019-05-26T10:19:56.967Z,17824.00
2019-05-26T10:20:57.013Z,15968.00
2019-05-26T10:21:57.001Z,9000.00
2019-05-26T10:22:56.946Z,7424.00
2019-05-26T10:23:56.940Z,9596.00
2019-05-26T10:24:56.933Z,11244.00
2019-05-26T10:25:56.929Z,48960.00
2019-05-26T10:26:56.921Z,14076.00
2019-05-26T10:27:56.913Z,8640.00
2019-05-26T10:29:00.386Z,7492.00
2019-05-26T10:29:56.903Z,9252.00
2019-05-26T10:31:24.622Z,56000.00
2019-05-26T10:32:24.683Z,53952.00
2019-05-26T10:33:24.620Z,52864.00
2019-05-26T10:34:24.605Z,51136.00
2019-05-26T10:35:24.602Z,50400.00
2019-05-26T10:36:24.593Z,50400.00
2019-05-26T10:37:24.593Z,47872.00
2019-05-26T10:38:24.591Z,49568.00
2019-05-26T10:39:24.624Z,9284.00
2019-05-26T10:40:24.571Z,7452.00
2019-05-26T10:41:24.584Z,8064.00
2019-05-26T10:42:24.581Z,30848.00
2019-05-26T10:43:24.575Z,45216.00
2019-05-26T10:44:24.570Z,9988.00
2019-05-26T10:45:24.614Z,8944.00
2019-05-26T10:46:24.556Z,30912.00
2019-05-26T10:47:24.555Z,49376.00
2019-05-26T10:48:24.544Z,45664.00
2019-05-26T10:49:24.586Z,43232.00
2019-05-26T10:50:24.533Z,8256.00
2019-05-26T10:51:24.529Z,16224.00
2019-05-26T10:52:24.520Z,31680.00
2019-05-26T10:53:24.513Z,39488.00
2019-05-26T10:54:24.506Z,26432.00
2019-05-26T10:55:52.225Z,35136.00
2019-05-26T10:56:52.222Z,33088.00
2019-05-26T10:58:52.211Z,31648.00
2019-05-26T10:59:52.207Z,24288.00
2019-05-26T11:00:52.199Z,12688.00
2019-05-26T11:01:52.195Z,8568.00
2019-05-26T11:02:52.205Z,8140.00
2019-05-26T11:03:52.178Z,7732.00
2019-05-26T11:04:52.175Z,7464.00
2019-05-26T11:05:52.166Z,7408.00
2019-05-26T11:06:52.159Z,7296.00
2019-05-26T11:07:52.156Z,7140.00
2019-05-26T11:08:52.150Z,6888.00
2019-05-26T11:09:52.144Z,6424.00
2019-05-26T11:10:52.136Z,6796.00
2019-05-26T11:11:52.128Z,5928.00
2019-05-26T11:12:52.122Z,8080.00
2019-05-26T11:14:02.244Z,7916.00
2019-05-26T11:15:19.834Z,7816.00
2019-05-26T11:16:19.831Z,7532.00
2019-05-26T11:17:19.824Z,6564.00
2019-05-26T11:18:19.816Z,5032.00
2019-05-26T11:19:19.813Z,4424.00
2019-05-26T11:20:19.808Z,4172.00
2019-05-26T11:21:19.807Z,5916.00
2019-05-26T11:22:19.794Z,6716.00
2019-05-26T11:23:19.788Z,6792.00
2019-05-26T11:24:19.793Z,6408.00
2019-05-26T11:25:19.783Z,4872.00
2019-05-26T11:26:19.781Z,5812.00
2019-05-26T11:27:19.773Z,5772.00
2019-05-26T11:28:19.765Z,5712.00
2019-05-26T11:29:19.762Z,5476.00
2019-05-26T11:30:19.810Z,5676.00
2019-05-26T11:31:19.766Z,6400.00
2019-05-26T11:32:19.759Z,5724.00
2019-05-26T11:33:19.766Z,5212.00
2019-05-26T11:34:19.747Z,5604.00
2019-05-26T11:35:19.742Z,6396.00
2019-05-26T11:36:19.734Z,6000.00
2019-05-26T11:37:19.726Z,5184.00
2019-05-26T11:38:19.774Z,4904.00
2019-05-26T11:39:19.716Z,5100.00
2019-05-26T11:40:19.709Z,5748.00
2019-05-26T11:41:19.708Z,6052.00
2019-05-26T11:42:19.699Z,6444.00
2019-05-26T11:43:19.693Z,5240.00
2019-05-26T11:44:19.743Z,4988.00
2019-05-26T11:45:19.682Z,4844.00
2019-05-26T11:46:19.677Z,4624.00
2019-05-26T11:47:19.672Z,4276.00
2019-05-26T11:48:19.664Z,4104.00
2019-05-26T11:49:19.656Z,3900.00
2019-05-26T11:50:19.653Z,3848.00
2019-05-26T11:51:19.644Z,3876.00
2019-05-26T11:53:19.653Z,3900.00
2019-05-26T11:54:19.649Z,3860.00
2019-05-26T11:55:19.641Z,3800.00
2019-05-26T11:56:19.640Z,3684.00
2019-05-26T11:57:19.627Z,3616.00
2019-05-26T11:58:19.622Z,3572.00
2019-05-26T11:59:19.618Z,3584.00
2019-05-26T12:00:19.607Z,3740.00
2019-05-26T12:01:22.820Z,4304.00
2019-05-26T12:02:19.610Z,4828.00
2019-05-26T12:03:19.599Z,4928.00
2019-05-26T12:04:19.667Z,5008.00
2019-05-26T12:05:19.586Z,4892.00
2019-05-26T12:06:19.583Z,4120.00
2019-05-26T12:07:19.576Z,3852.00
2019-05-26T12:08:19.573Z,4248.00
2019-05-26T12:09:19.563Z,4928.00
2019-05-26T12:10:19.562Z,4708.00
2019-05-26T12:11:19.554Z,4572.00
2019-05-26T12:12:19.593Z,4668.00
2019-05-26T12:13:19.539Z,5268.00
2019-05-26T12:14:33.517Z,6132.00
2019-05-26T12:15:47.255Z,5068.00
2019-05-26T12:16:47.246Z,4212.00
2019-05-26T12:17:47.245Z,3852.00
2019-05-26T12:18:47.237Z,3824.00
2019-05-26T12:19:47.229Z,3732.00
2019-05-26T12:20:47.221Z,3764.00
2019-05-26T12:21:47.220Z,3784.00
2019-05-26T12:22:47.211Z,3868.00
2019-05-26T12:23:47.206Z,3764.00
2019-05-26T12:24:47.201Z,3540.00
2019-05-26T12:25:47.194Z,3492.00
2019-05-26T12:26:47.187Z,3648.00
2019-05-26T12:27:47.183Z,4144.00
2019-05-26T12:28:47.175Z,4592.00
2019-05-26T12:29:47.172Z,4976.00
2019-05-26T12:30:47.160Z,4880.00
2019-05-26T12:31:47.153Z,4132.00
2019-05-26T12:32:47.145Z,3608.00
2019-05-26T12:33:47.140Z,3380.00
2019-05-26T12:34:47.136Z,3256.00
2019-05-26T12:35:47.130Z,3296.00
2019-05-26T12:36:47.124Z,3324.00
2019-05-26T12:37:48.566Z,3364.00